| time (UTC) | temp F | wind direction | speed MPH | gust MPH | rain 1hr in | rain 24hr in | rain mn in | humidity % | barometer mb |
| 20260503215504 | 77 | 283 | 4.0 | 12.0 | 0.00 | 0.00 | 0.00 | 46 | 1011.2 |
| 20260503215005 | 76 | 24 | 4.0 | 13.0 | 0.00 | 0.00 | 0.00 | 46 | 1011.2 |
| 20260503214505 | 77 | 9 | 4.0 | 13.0 | 0.00 | 0.00 | 0.00 | 45 | 1011.3 |
| 20260503214004 | 76 | 311 | 5.0 | 11.0 | 0.00 | 0.00 | 0.00 | 46 | 1011.3 |
| 20260503213505 | 77 | 264 | 5.0 | 11.0 | 0.00 | 0.00 | 0.00 | 46 | 1011.3 |
| 20260503213005 | 78 | 266 | 4.0 | 11.0 | 0.00 | 0.00 | 0.00 | 44 | 1011.3 |
| 20260503212504 | 77 | 257 | 4.0 | 12.0 | 0.00 | 0.00 | 0.00 | 45 | 1011.3 |
| 20260503212005 | 77 | 254 | 4.0 | 12.0 | 0.00 | 0.00 | 0.00 | 45 | 1011.3 |
| 20260503211505 | 77 | 253 | 3.0 | 7.0 | 0.00 | 0.00 | 0.00 | 46 | 1011.3 |
| 20260503211005 | 77 | 253 | 4.0 | 10.0 | 0.00 | 0.00 | 0.00 | 46 | 1011.4 |
| 20260503210005 | 77 | 268 | 4.0 | 10.0 | 0.00 | 0.00 | 0.00 | 45 | 1011.5 |
| 20260503204504 | 76 | 253 | 5.0 | 9.0 | 0.00 | 0.00 | 0.00 | 46 | 1011.6 |
| 20260503204004 | 76 | 254 | 5.0 | 11.0 | 0.00 | 0.00 | 0.00 | 46 | 1011.7 |
| 20260503203505 | 76 | 258 | 4.0 | 11.0 | 0.00 | 0.00 | 0.00 | 46 | 1011.8 |
| 20260503203005 | 76 | 258 | 4.0 | 10.0 | 0.00 | 0.00 | 0.00 | 48 | 1011.9 |
| 20260503202505 | 77 | 256 | 4.0 | 10.0 | 0.00 | 0.00 | 0.00 | 46 | 1011.8 |
| 20260503201505 | 77 | 255 | 3.0 | 9.0 | 0.00 | 0.00 | 0.00 | 46 | 1011.9 |
| 20260503201004 | 77 | 256 | 3.0 | 8.0 | 0.00 | 0.00 | 0.00 | 46 | 1012.1 |
| 20260503200505 | 76 | 254 | 3.0 | 8.0 | 0.00 | 0.00 | 0.00 | 48 | 1012.1 |
| 20260503200004 | 76 | 259 | 4.0 | 8.0 | 0.00 | 0.00 | 0.00 | 49 | 1012.2 |
| 20260503195505 | 76 | 258 | 4.0 | 7.0 | 0.00 | 0.00 | 0.00 | 49 | 1012.2 |
| 20260503195004 | 76 | 256 | 4.0 | 7.0 | 0.00 | 0.00 | 0.00 | 48 | 1012.3 |
| 20260503194504 | 76 | 257 | 4.0 | 7.0 | 0.00 | 0.00 | 0.00 | 48 | 1012.4 |
| 20260503193504 | 75 | 259 | 3.0 | 8.0 | 0.00 | 0.00 | 0.00 | 48 | 1012.6 |
| 20260503193004 | 75 | 258 | 3.0 | 8.0 | 0.00 | 0.00 | 0.00 | 50 | 1012.7 |
| 20260503192005 | 74 | 262 | 4.0 | 8.0 | 0.00 | 0.00 | 0.00 | 50 | 1012.8 |
| 20260503191004 | 73 | 261 | 4.0 | 10.0 | 0.00 | 0.00 | 0.00 | 52 | 1012.8 |
| 20260503190005 | 72 | 256 | 3.0 | 10.0 | 0.00 | 0.00 | 0.00 | 54 | 1013.0 |
| 20260503185505 | 72 | 255 | 4.0 | 7.0 | 0.00 | 0.00 | 0.00 | 55 | 1013.1 |
| 20260503185004 | 71 | 255 | 5.0 | 10.0 | 0.00 | 0.00 | 0.00 | 54 | 1013.2 |
| 20260503184505 | 71 | 253 | 5.0 | 10.0 | 0.00 | 0.00 | 0.00 | 54 | 1013.2 |
| 20260503183504 | 70 | 249 | 3.0 | 9.0 | 0.00 | 0.00 | 0.00 | 56 | 1013.3 |
| 20260503182505 | 70 | 257 | 3.0 | 8.0 | 0.00 | 0.00 | 0.00 | 56 | 1013.5 |
| 20260503182005 | 69 | 270 | 3.0 | 8.0 | 0.00 | 0.00 | 0.00 | 58 | 1013.4 |
| 20260503181004 | 69 | 256 | 4.0 | 12.0 | 0.00 | 0.00 | 0.00 | 59 | 1013.4 |
| 20260503180505 | 68 | 263 | 4.0 | 12.0 | 0.00 | 0.00 | 0.00 | 59 | 1013.5 |
| 20260503180005 | 68 | 257 | 3.0 | 8.0 | 0.00 | 0.00 | 0.00 | 59 | 1013.5 |
| 20260503175504 | 68 | 251 | 3.0 | 8.0 | 0.00 | 0.00 | 0.00 | 60 | 1013.6 |
| 20260503175005 | 68 | 254 | 4.0 | 7.0 | 0.00 | 0.00 | 0.00 | 60 | 1013.6 |
| 20260503174505 | 68 | 282 | 3.0 | 7.0 | 0.00 | 0.00 | 0.00 | 61 | 1013.6 |
| 20260503174005 | 68 | 302 | 2.0 | 8.0 | 0.00 | 0.00 | 0.00 | 59 | 1013.7 |
| 20260503173505 | 68 | 313 | 2.0 | 8.0 | 0.00 | 0.00 | 0.00 | 58 | 1013.7 |
| 20260503173004 | 68 | 285 | 2.0 | 8.0 | 0.00 | 0.00 | 0.00 | 57 | 1013.8 |
| 20260503172504 | 68 | 286 | 3.0 | 8.0 | 0.00 | 0.00 | 0.00 | 55 | 1013.8 |
| 20260503172004 | 68 | 8 | 3.0 | 10.0 | 0.00 | 0.00 | 0.00 | 56 | 1013.8 |
| 20260503171504 | 68 | 28 | 3.0 | 10.0 | 0.00 | 0.00 | 0.00 | 54 | 1013.8 |
| 20260503171004 | 68 | 24 | 3.0 | 7.0 | 0.00 | 0.00 | 0.00 | 53 | 1013.9 |
| 20260503170505 | 68 | 38 | 3.0 | 8.0 | 0.00 | 0.00 | 0.00 | 56 | 1013.9 |
| 20260503151005 | 63 | 275 | 1.0 | 5.0 | 0.00 | 0.00 | 0.00 | 70 | 1014.3 |
| 20260503150504 | 62 | 283 | 1.0 | 5.0 | 0.00 | 0.00 | 0.00 | 70 | 1014.3 |
| 20260503131004 | 51 | 222 | 0.0 | 1.0 | 0.00 | 0.00 | 0.00 | 87 | 1013.8 |
| 20260503130504 | 51 | 40 | 0.0 | 2.0 | 0.00 | 0.00 | 0.00 | 87 | 1013.8 |
| 20260503110504 | 52 | 53 | 0.0 | 2.0 | 0.00 | 0.00 | 0.00 | 82 | 1014.0 |
| 20260503090506 | 53 | 81 | 0.0 | 3.0 | 0.00 | 0.00 | 0.00 | 79 | 1013.9 |
| 20260503081005 | 54 | 75 | 0.0 | 2.0 | 0.00 | 0.00 | 0.00 | 79 | 1013.9 |
| 20260503080505 | 54 | 62 | 0.0 | 2.0 | 0.00 | 0.00 | 0.00 | 78 | 1013.9 |
| 20260503072505 | 55 | 52 | 0.0 | 2.0 | 0.00 | 0.00 | 0.00 | 77 | 1013.7 |
| 20260503072006 | 55 | 43 | 0.0 | 3.0 | 0.00 | 0.00 | 0.00 | 77 | 1013.7 |
| 20260503071506 | 55 | 41 | 0.0 | 3.0 | 0.00 | 0.00 | 0.00 | 77 | 1013.6 |
| 20260503071006 | 55 | 52 | 0.0 | 2.0 | 0.00 | 0.00 | 0.00 | 77 | 1013.6 |
| 20260503070506 | 55 | 51 | 0.0 | 2.0 | 0.00 | 0.00 | 0.00 | 77 | 1013.6 |
| 20260503055005 | 57 | 47 | 0.0 | 1.0 | 0.00 | 0.00 | 0.00 | 72 | 1013.7 |
| 20260503054506 | 58 | 32 | 0.0 | 1.0 | 0.00 | 0.00 | 0.00 | 72 | 1013.6 |
| 20260503053005 | 58 | 357 | 0.0 | 1.0 | 0.00 | 0.00 | 0.00 | 71 | 1013.7 |
| 20260503052505 | 58 | 37 | 0.0 | 2.0 | 0.00 | 0.00 | 0.00 | 70 | 1013.6 |
| 20260503052006 | 59 | 53 | 0.0 | 2.0 | 0.00 | 0.00 | 0.00 | 70 | 1013.6 |
| 20260503051005 | 59 | 35 | 0.0 | 2.0 | 0.00 | 0.00 | 0.00 | 70 | 1013.7 |
| 20260503050505 | 60 | 31 | 0.0 | 2.0 | 0.00 | 0.00 | 0.00 | 69 | 1013.5 |
| 20260503050006 | 60 | 8 | 0.0 | 1.0 | 0.00 | 0.00 | 0.00 | 68 | 1013.6 |
| 20260503045005 | 61 | 309 | 0.0 | 1.0 | 0.00 | 0.00 | 0.00 | 67 | 1013.5 |
| 20260503044506 | 61 | 21 | 0.0 | 2.0 | 0.00 | 0.00 | 0.00 | 67 | 1013.4 |
| 20260503044005 | 61 | 36 | 0.0 | 2.0 | 0.00 | 0.00 | 0.00 | 66 | 1013.3 |
| 20260503043505 | 62 | 58 | 0.0 | 2.0 | 0.00 | 0.00 | 0.00 | 66 | 1013.3 |
| 20260503043005 | 62 | 80 | 1.0 | 2.0 | 0.00 | 0.00 | 0.00 | 64 | 1013.3 |
| 20260503042005 | 63 | 61 | 0.0 | 4.0 | 0.00 | 0.00 | 0.00 | 63 | 1013.1 |
| 20260503041505 | 63 | 32 | 1.0 | 4.0 | 0.00 | 0.00 | 0.00 | 62 | 1013.0 |
| 20260503040505 | 64 | 16 | 1.0 | 7.0 | 0.00 | 0.00 | 0.00 | 60 | 1012.9 |
| 20260503035505 | 64 | 265 | 1.0 | 2.0 | 0.00 | 0.00 | 0.00 | 60 | 1012.7 |
| 20260503035006 | 64 | 312 | 0.0 | 4.0 | 0.00 | 0.00 | 0.00 | 59 | 1012.7 |
| 20260503034506 | 65 | 314 | 0.0 | 4.0 | 0.00 | 0.00 | 0.00 | 58 | 1012.7 |
| 20260503034005 | 65 | 238 | 0.0 | 3.0 | 0.00 | 0.00 | 0.00 | 60 | 1012.6 |
| 20260503033505 | 65 | 229 | 0.0 | 3.0 | 0.00 | 0.00 | 0.00 | 58 | 1012.5 |
| 20260503033005 | 66 | 236 | 1.0 | 2.0 | 0.00 | 0.00 | 0.00 | 58 | 1012.5 |
| 20260503032505 | 66 | 238 | 1.0 | 3.0 | 0.00 | 0.00 | 0.00 | 57 | 1012.4 |
| 20260503032006 | 66 | 237 | 1.0 | 3.0 | 0.00 | 0.00 | 0.00 | 57 | 1012.5 |
| 20260503031506 | 66 | 236 | 1.0 | 3.0 | 0.00 | 0.00 | 0.00 | 58 | 1012.5 |
| 20260503031005 | 67 | 236 | 1.0 | 3.0 | 0.00 | 0.00 | 0.00 | 56 | 1012.4 |
| 20260503030505 | 67 | 245 | 1.0 | 3.0 | 0.00 | 0.00 | 0.00 | 56 | 1012.3 |
| 20260503030005 | 68 | 246 | 1.0 | 3.0 | 0.00 | 0.00 | 0.00 | 55 | 1012.2 |
| 20260503025505 | 68 | 242 | 1.0 | 4.0 | 0.00 | 0.00 | 0.00 | 55 | 1012.2 |
| 20260503025006 | 68 | 238 | 2.0 | 6.0 | 0.00 | 0.00 | 0.00 | 54 | 1012.2 |
| 20260503024505 | 68 | 240 | 2.0 | 6.0 | 0.00 | 0.00 | 0.00 | 53 | 1012.2 |
| 20260503023505 | 69 | 252 | 2.0 | 7.0 | 0.00 | 0.00 | 0.00 | 52 | 1012.1 |
| 20260503022505 | 70 | 22 | 2.0 | 5.0 | 0.00 | 0.00 | 0.00 | 49 | 1012.1 |
| 20260503022005 | 70 | 348 | 2.0 | 5.0 | 0.00 | 0.00 | 0.00 | 50 | 1012.1 |
| 20260503021005 | 70 | 32 | 3.0 | 12.0 | 0.00 | 0.00 | 0.00 | 48 | 1012.1 |
| 20260503020505 | 70 | 21 | 3.0 | 12.0 | 0.00 | 0.00 | 0.00 | 48 | 1012.1 |
| 20260503020005 | 70 | 353 | 3.0 | 10.0 | 0.00 | 0.00 | 0.00 | 47 | 1012.2 |
| 20260503015505 | 70 | 354 | 4.0 | 15.0 | 0.00 | 0.00 | 0.00 | 49 | 1012.2 |
| 20260503015005 | 70 | 339 | 4.0 | 15.0 | 0.00 | 0.00 | 0.00 | 49 | 1012.2 |
| 20260503014505 | 70 | 272 | 3.0 | 15.0 | 0.00 | 0.00 | 0.00 | 51 | 1012.2 |
| 20260503014005 | 71 | 296 | 2.0 | 11.0 | 0.00 | 0.00 | 0.00 | 51 | 1012.2 |
| 20260503013505 | 71 | 358 | 3.0 | 12.0 | 0.00 | 0.00 | 0.00 | 52 | 1012.2 |
| 20260503013005 | 71 | 21 | 4.0 | 12.0 | 0.00 | 0.00 | 0.00 | 50 | 1012.3 |
| 20260503012505 | 71 | 21 | 3.0 | 11.0 | 0.00 | 0.00 | 0.00 | 52 | 1012.4 |
| 20260503012005 | 71 | 15 | 3.0 | 11.0 | 0.00 | 0.00 | 0.00 | 53 | 1012.3 |
| 20260503011506 | 70 | 16 | 2.0 | 6.0 | 0.00 | 0.00 | 0.00 | 54 | 1012.3 |
| 20260503011005 | 70 | 268 | 2.0 | 7.0 | 0.00 | 0.00 | 0.00 | 56 | 1012.4 |
| 20260503010505 | 70 | 253 | 2.0 | 7.0 | 0.00 | 0.00 | 0.00 | 57 | 1012.3 |
| 20260503005505 | 70 | 252 | 3.0 | 8.0 | 0.00 | 0.00 | 0.00 | 57 | 1012.5 |
| 20260503005005 | 71 | 250 | 3.0 | 8.0 | 0.00 | 0.00 | 0.00 | 59 | 1012.5 |
| 20260503004505 | 71 | 244 | 3.0 | 10.0 | 0.00 | 0.00 | 0.00 | 57 | 1012.5 |
| 20260503004005 | 71 | 242 | 3.0 | 10.0 | 0.00 | 0.00 | 0.00 | 56 | 1012.6 |
| 20260503003505 | 71 | 248 | 4.0 | 11.0 | 0.00 | 0.00 | 0.00 | 56 | 1012.5 |
| 20260503003005 | 71 | 252 | 4.0 | 11.0 | 0.00 | 0.00 | 0.00 | 56 | 1012.6 |
| 20260503002505 | 72 | 254 | 5.0 | 11.0 | 0.00 | 0.00 | 0.00 | 55 | 1012.5 |
| 20260503002005 | 72 | 257 | 5.0 | 11.0 | 0.00 | 0.00 | 0.00 | 55 | 1012.5 |
| 20260503001505 | 72 | 254 | 3.0 | 9.0 | 0.00 | 0.00 | 0.00 | 56 | 1012.5 |
| 20260503001005 | 72 | 247 | 3.0 | 9.0 | 0.00 | 0.00 | 0.00 | 56 | 1012.6 |
| 20260502235504 | 72 | 303 | 2.0 | 8.0 | 0.00 | 0.00 | 0.00 | 55 | 1012.7 |
| 20260502235005 | 72 | 268 | 3.0 | 12.0 | 0.00 | 0.00 | 0.00 | 56 | 1012.8 |
| 20260502234505 | 72 | 260 | 4.0 | 12.0 | 0.00 | 0.00 | 0.00 | 55 | 1012.8 |
| 20260502234005 | 72 | 258 | 3.0 | 8.0 | 0.00 | 0.00 | 0.00 | 56 | 1013.0 |
| 20260502233005 | 72 | 280 | 3.0 | 12.0 | 0.00 | 0.00 | 0.00 | 55 | 1013.1 |
| 20260502232505 | 72 | 270 | 4.0 | 9.0 | 0.00 | 0.00 | 0.00 | 55 | 1013.2 |
| 20260502232005 | 72 | 257 | 4.0 | 9.0 | 0.00 | 0.00 | 0.00 | 55 | 1013.2 |
| 20260502231505 | 72 | 257 | 4.0 | 14.0 | 0.00 | 0.00 | 0.00 | 55 | 1013.3 |
| 20260502230505 | 72 | 259 | 4.0 | 10.0 | 0.00 | 0.00 | 0.00 | 56 | 1013.5 |
| 20260502225505 | 72 | 273 | 4.0 | 10.0 | 0.00 | 0.00 | 0.00 | 56 | 1013.7 |
| 20260502225005 | 72 | 281 | 4.0 | 8.0 | 0.00 | 0.00 | 0.00 | 54 | 1013.8 |
| 20260502224505 | 71 | 263 | 4.0 | 11.0 | 0.00 | 0.00 | 0.00 | 56 | 1013.8 |
| 20260502224005 | 71 | 255 | 5.0 | 11.0 | 0.00 | 0.00 | 0.00 | 55 | 1013.7 |
| 20260502223005 | 71 | 258 | 4.0 | 12.0 | 0.00 | 0.00 | 0.00 | 54 | 1013.9 |
| 20260502222505 | 72 | 257 | 4.0 | 12.0 | 0.00 | 0.00 | 0.00 | 54 | 1014.0 |
| 20260502222005 | 72 | 256 | 5.0 | 11.0 | 0.00 | 0.00 | 0.00 | 54 | 1014.1 |
| 20260502221505 | 72 | 260 | 4.0 | 11.0 | 0.00 | 0.00 | 0.00 | 54 | 1014.1 |
| 20260502221005 | 72 | 261 | 4.0 | 10.0 | 0.00 | 0.00 | 0.00 | 53 | 1014.2 |